Chia-i, Taiwan
Current Conditions -  °F | °C
As of 10:30 AM on Thursday 23 Oct 2014 (Local Time) from RCMQ Reporting Station
Broken Clouds Broken Clouds  
Wind Chill: 77°   Ceiling: 8000
Heat Index: 79°   Visibility: 6mi
Dew Point: 59°   Wind: 14mph
Humidity: 54%   Direction: 20°NNE
Pressure: 30"   Gusts: 26mph
Location:  23.48°N, 120.44°E
Report Text: RCMQ 230230Z 02012G23KT 9999 FEW012 SCT040 BKN080 25/15 Q1016 NOSIG RMK A3002
Loading
Personal Weather Stations






























Interactive Weather Map New forecast layout! Learn more

10-Day Weather Forecast

Advertisements
Track Severe Weather on mobile